createdAt,value
2017-11-18T00:00:12.149Z,50.30
2017-11-18T00:02:39.597Z,45.43
2017-11-18T00:05:07.813Z,47.20
2017-11-18T00:07:35.253Z,47.23
2017-11-18T00:10:02.681Z,50.07
2017-11-18T00:12:30.898Z,49.23
2017-11-18T00:14:58.334Z,49.30
2017-11-18T00:17:25.765Z,47.37
2017-11-18T00:19:53.966Z,55.03
2017-11-18T00:22:21.402Z,49.97
2017-11-18T00:24:49.617Z,50.40
2017-11-18T00:27:17.051Z,51.93
2017-11-18T00:29:44.490Z,56.80
2017-11-18T00:32:11.919Z,54.67
2017-11-18T00:34:39.365Z,55.90
2017-11-18T00:37:06.806Z,58.03
2017-11-18T00:39:34.242Z,52.87
2017-11-18T00:42:01.702Z,55.27
2017-11-18T00:44:29.126Z,52.43
2017-11-18T00:46:56.558Z,59.17
2017-11-18T00:49:23.998Z,52.60
2017-11-18T00:51:51.450Z,53.20
2017-11-18T00:54:18.886Z,55.47
2017-11-18T00:56:46.317Z,51.70
2017-11-18T00:59:14.535Z,53.37
2017-11-18T01:01:41.966Z,53.23
2017-11-18T01:04:09.403Z,54.03
2017-11-18T01:06:37.603Z,55.33
2017-11-18T01:09:05.045Z,53.07
2017-11-18T01:11:33.318Z,54.67
2017-11-18T01:14:01.509Z,53.00
2017-11-18T01:16:28.945Z,55.20
2017-11-18T01:18:57.167Z,52.70
2017-11-18T01:21:24.621Z,53.40
2017-11-18T01:23:52.050Z,53.43
2017-11-18T01:26:19.494Z,56.83
2017-11-18T01:28:47.682Z,53.00
2017-11-18T01:31:15.125Z,51.30
2017-11-18T01:33:43.329Z,53.57
2017-11-18T01:36:10.771Z,50.33
2017-11-18T01:38:38.210Z,50.60
2017-11-18T01:41:06.424Z,51.60
2017-11-18T01:43:33.851Z,48.63
2017-11-18T01:46:02.063Z,43.07
2017-11-18T01:48:29.503Z,41.87
2017-11-18T01:50:56.954Z,44.63
2017-11-18T01:53:24.382Z,44.67
2017-11-18T01:55:52.592Z,43.83
2017-11-18T01:58:20.033Z,43.80
2017-11-18T02:00:48.501Z,41.57
2017-11-18T02:03:16.699Z,43.87
2017-11-18T02:05:44.130Z,39.40
2017-11-18T02:08:12.349Z,39.30
2017-11-18T02:10:39.774Z,41.17
2017-11-18T02:13:07.990Z,42.07
2017-11-18T02:15:35.428Z,36.60
2017-11-18T02:18:02.857Z,40.13
2017-11-18T02:20:30.289Z,41.37
2017-11-18T02:22:57.734Z,42.83
2017-11-18T02:25:25.177Z,39.80
2017-11-18T02:27:52.618Z,40.07
2017-11-18T02:30:20.067Z,37.87
2017-11-18T02:32:47.516Z,39.13
2017-11-18T02:35:14.936Z,39.43
2017-11-18T02:37:42.383Z,41.40
2017-11-18T02:40:09.839Z,36.90
2017-11-18T02:42:37.269Z,38.23
2017-11-18T02:45:04.713Z,39.27
2017-11-18T02:47:32.162Z,37.70
2017-11-18T02:49:59.594Z,38.90
2017-11-18T02:52:27.798Z,34.47
2017-11-18T02:54:55.246Z,41.20
2017-11-18T02:57:23.489Z,36.13
2017-11-18T02:59:50.938Z,38.97
2017-11-18T03:02:18.376Z,34.20
2017-11-18T03:04:45.818Z,36.10
2017-11-18T03:07:13.255Z,35.40
2017-11-18T03:09:40.696Z,36.83
2017-11-18T03:12:08.905Z,35.73
2017-11-18T03:14:36.347Z,40.23
2017-11-18T03:17:03.782Z,33.23
2017-11-18T03:19:31.230Z,38.00
2017-11-18T03:21:59.435Z,34.40
2017-11-18T03:24:26.887Z,35.23
2017-11-18T03:26:54.317Z,35.77
2017-11-18T03:29:22.513Z,35.83
2017-11-18T03:31:49.949Z,35.57
2017-11-18T03:34:17.374Z,32.83
2017-11-18T03:36:44.819Z,33.90
2017-11-18T03:39:12.256Z,38.37
2017-11-18T03:41:39.694Z,38.70
2017-11-18T03:44:07.122Z,41.30
2017-11-18T03:46:34.557Z,40.60
2017-11-18T03:49:01.993Z,44.83
2017-11-18T03:51:29.441Z,44.40
2017-11-18T03:53:56.880Z,37.70
2017-11-18T03:56:24.313Z,36.00
2017-11-18T03:58:51.750Z,38.93
2017-11-18T04:01:19.211Z,37.93
2017-11-18T04:03:46.637Z,36.53
2017-11-18T04:06:14.091Z,35.97
2017-11-18T04:08:41.529Z,37.10
2017-11-18T04:11:08.967Z,34.40
2017-11-18T04:13:37.173Z,39.00
2017-11-18T04:16:04.609Z,39.13
2017-11-18T04:18:32.037Z,38.50
2017-11-18T04:20:59.478Z,37.87
2017-11-18T04:23:27.686Z,37.27
2017-11-18T04:25:55.881Z,35.80
2017-11-18T04:28:24.342Z,38.40
2017-11-18T04:30:51.769Z,37.27
2017-11-18T04:33:19.211Z,36.77
2017-11-18T04:35:47.630Z,35.40
2017-11-18T04:38:15.850Z,39.53
2017-11-18T04:40:43.295Z,33.77
2017-11-18T04:43:10.721Z,36.27
2017-11-18T04:45:38.939Z,35.33
2017-11-18T04:48:06.380Z,32.10
2017-11-18T04:50:33.830Z,34.97
2017-11-18T04:53:02.087Z,34.93
2017-11-18T04:55:30.289Z,36.33
2017-11-18T04:57:57.722Z,29.27
2017-11-18T05:00:25.934Z,30.73
2017-11-18T05:02:53.366Z,27.33
2017-11-18T05:05:20.808Z,25.83
2017-11-18T05:07:49.006Z,23.17
2017-11-18T05:10:16.449Z,23.23
2017-11-18T05:12:44.641Z,22.67
2017-11-18T05:15:12.082Z,24.43
2017-11-18T05:17:39.514Z,24.40
2017-11-18T05:20:06.957Z,22.40
2017-11-18T05:22:34.394Z,23.87
2017-11-18T05:25:01.843Z,23.10
2017-11-18T05:27:29.285Z,22.83
2017-11-18T05:29:56.733Z,22.67
2017-11-18T05:32:24.153Z,21.40
2017-11-18T05:34:51.587Z,21.07
2017-11-18T05:37:19.023Z,23.00
2017-11-18T05:39:46.469Z,21.30
2017-11-18T05:42:13.897Z,20.43
2017-11-18T05:44:42.093Z,22.80
2017-11-18T05:47:09.534Z,20.13
2017-11-18T05:49:37.725Z,21.43
2017-11-18T05:52:05.171Z,22.07
2017-11-18T05:54:33.369Z,21.40
2017-11-18T05:57:00.802Z,20.50
2017-11-18T05:59:29.014Z,23.07
2017-11-18T06:01:57.478Z,23.10
2017-11-18T06:04:24.902Z,22.30
2017-11-18T06:06:53.107Z,20.07
2017-11-18T06:09:20.543Z,21.30
2017-11-18T06:11:48.747Z,20.83
2017-11-18T06:14:16.188Z,20.23
2017-11-18T06:16:49.262Z,21.30
2017-11-18T06:19:17.468Z,18.00
2017-11-18T06:21:46.938Z,20.03
2017-11-18T06:24:17.158Z,21.77
2017-11-18T06:26:45.362Z,19.30
2017-11-18T06:29:12.826Z,19.87
2017-11-18T06:31:40.252Z,20.40
2017-11-18T06:34:08.454Z,19.00
2017-11-18T06:36:35.902Z,20.60
2017-11-18T06:39:03.356Z,19.70
2017-11-18T06:41:31.563Z,18.27
2017-11-18T06:43:59.004Z,19.30
2017-11-18T06:46:27.460Z,19.50
2017-11-18T06:48:55.674Z,18.97
2017-11-18T06:51:23.127Z,18.37
2017-11-18T06:53:50.567Z,17.83
2017-11-18T06:56:17.997Z,17.70
2017-11-18T06:58:46.203Z,16.30
2017-11-18T07:01:13.647Z,17.50
2017-11-18T07:03:41.084Z,18.17
2017-11-18T07:06:09.304Z,17.33
2017-11-18T07:08:36.736Z,17.43
2017-11-18T07:11:04.955Z,19.90
2017-11-18T07:13:32.453Z,16.77
2017-11-18T07:16:00.678Z,17.20
2017-11-18T07:18:28.146Z,16.93
2017-11-18T07:20:55.611Z,16.17
2017-11-18T07:23:23.070Z,16.33
2017-11-18T07:25:50.502Z,17.27
2017-11-18T07:28:17.942Z,14.43
2017-11-18T07:30:45.384Z,14.63
2017-11-18T07:33:13.619Z,15.27
2017-11-18T07:35:41.013Z,15.57
2017-11-18T07:38:09.225Z,16.57
2017-11-18T07:40:36.658Z,15.50
2017-11-18T07:43:04.126Z,15.17
2017-11-18T07:45:31.561Z,16.53
2017-11-18T07:47:59.817Z,16.00
2017-11-18T07:50:27.255Z,16.57
2017-11-18T07:52:54.689Z,15.83
2017-11-18T07:55:22.125Z,15.60
2017-11-18T07:57:49.569Z,15.03
2017-11-18T08:00:17.017Z,13.90
2017-11-18T08:02:44.439Z,15.93
2017-11-18T08:05:11.882Z,16.23
2017-11-18T08:07:39.320Z,14.87
2017-11-18T08:10:06.757Z,14.50
2017-11-18T08:12:34.194Z,12.93
2017-11-18T08:15:02.409Z,12.57
2017-11-18T08:17:29.839Z,14.30
2017-11-18T08:19:57.317Z,14.00
2017-11-18T08:22:24.749Z,13.73
2017-11-18T08:24:52.942Z,13.90
2017-11-18T08:27:20.373Z,14.10
2017-11-18T08:29:48.574Z,14.50
2017-11-18T08:32:16.018Z,15.47
2017-11-18T08:34:44.218Z,14.87
2017-11-18T08:37:11.664Z,12.97
2017-11-18T08:39:39.099Z,11.83
2017-11-18T08:42:07.307Z,12.63
2017-11-18T08:44:34.734Z,13.33
2017-11-18T08:47:02.997Z,13.30
2017-11-18T08:49:31.201Z,12.20
2017-11-18T08:51:58.637Z,13.03
2017-11-18T08:54:26.864Z,12.07
2017-11-18T08:56:54.294Z,13.13
2017-11-18T08:59:21.739Z,13.60
2017-11-18T09:01:49.166Z,11.63
2017-11-18T09:04:16.606Z,11.63
2017-11-18T09:06:44.035Z,12.73
2017-11-18T09:09:11.475Z,12.90
2017-11-18T09:11:38.905Z,14.33
2017-11-18T09:14:07.116Z,10.40
2017-11-18T09:16:34.537Z,12.50
2017-11-18T09:19:02.764Z,12.33
2017-11-18T09:21:30.195Z,11.07
2017-11-18T09:23:57.646Z,11.90
2017-11-18T09:26:25.082Z,10.60
2017-11-18T09:28:53.285Z,9.87
2017-11-18T09:31:20.726Z,11.70
2017-11-18T09:33:48.926Z,10.70
2017-11-18T09:36:16.359Z,10.23
2017-11-18T09:38:44.561Z,11.30
2017-11-18T09:41:12.003Z,12.20
2017-11-18T09:43:39.444Z,11.77
2017-11-18T09:46:07.645Z,10.50
2017-11-18T09:48:35.082Z,13.17
2017-11-18T09:51:02.529Z,11.40
2017-11-18T09:53:30.739Z,10.30
2017-11-18T09:55:58.206Z,11.10
2017-11-18T09:58:25.678Z,11.70
2017-11-18T10:00:53.113Z,11.60
2017-11-18T10:03:23.706Z,10.60
2017-11-18T10:05:51.918Z,9.73
2017-11-18T10:08:19.375Z,8.90
2017-11-18T10:10:46.846Z,10.80
2017-11-18T10:13:14.312Z,10.27
2017-11-18T10:15:41.747Z,11.30
2017-11-18T10:18:09.189Z,9.90
2017-11-18T10:20:36.637Z,10.23
2017-11-18T10:23:04.837Z,10.70
2017-11-18T10:25:32.275Z,10.97
2017-11-18T10:27:59.738Z,11.10
2017-11-18T10:30:27.211Z,10.10
2017-11-18T10:32:56.713Z,11.13
2017-11-18T10:35:24.148Z,9.60
2017-11-18T10:37:51.649Z,10.20
2017-11-18T10:40:19.076Z,10.20
2017-11-18T10:42:46.517Z,7.93
2017-11-18T10:45:13.953Z,7.90
2017-11-18T10:47:41.396Z,7.63
2017-11-18T10:50:08.830Z,8.20
2017-11-18T10:52:36.266Z,7.07
2017-11-18T10:55:03.715Z,6.63
2017-11-18T10:57:31.174Z,6.63
2017-11-18T11:00:12.907Z,7.50
2017-11-18T11:02:41.420Z,6.63
2017-11-18T11:05:09.637Z,6.87
2017-11-18T11:07:37.076Z,6.17
2017-11-18T11:10:04.515Z,5.93
2017-11-18T11:12:33.707Z,8.07
2017-11-18T11:15:01.925Z,7.13
2017-11-18T11:17:29.354Z,8.77
2017-11-18T11:19:56.784Z,8.60
2017-11-18T11:22:24.225Z,8.00
2017-11-18T11:24:51.659Z,10.13
2017-11-18T11:27:19.093Z,8.23
2017-11-18T11:29:46.538Z,8.67
2017-11-18T11:32:13.971Z,9.37
2017-11-18T11:34:41.411Z,8.57
2017-11-18T11:37:08.846Z,8.53
2017-11-18T11:39:36.273Z,8.70
2017-11-18T11:42:05.659Z,7.93
2017-11-18T11:44:33.868Z,8.07
2017-11-18T11:47:01.296Z,7.60
2017-11-18T11:49:30.496Z,6.83
2017-11-18T11:51:58.691Z,8.10
2017-11-18T11:54:26.122Z,7.33
2017-11-18T11:56:54.318Z,8.40
2017-11-18T11:59:21.767Z,7.43
2017-11-18T12:01:49.205Z,6.87
2017-11-18T12:04:17.417Z,6.40
2017-11-18T12:06:44.849Z,5.37
2017-11-18T12:09:13.085Z,4.60
2017-11-18T12:11:41.483Z,4.50
2017-11-18T12:14:08.917Z,4.80
2017-11-18T12:16:36.350Z,4.60
2017-11-18T12:19:03.776Z,5.37
2017-11-18T12:21:31.979Z,4.60
2017-11-18T12:23:59.407Z,5.10
2017-11-18T12:26:27.608Z,4.70
2017-11-18T12:28:55.034Z,4.27
2017-11-18T12:31:23.293Z,4.70
2017-11-18T12:33:50.731Z,5.00
2017-11-18T12:36:18.170Z,4.37
2017-11-18T12:38:45.687Z,4.20
2017-11-18T12:41:13.131Z,5.60
2017-11-18T12:43:41.326Z,4.97
2017-11-18T12:46:08.861Z,4.67
2017-11-18T12:48:36.300Z,4.40
2017-11-18T12:51:03.728Z,4.60
2017-11-18T12:53:32.154Z,3.70
2017-11-18T12:55:59.586Z,4.80
2017-11-18T12:58:27.070Z,4.20
2017-11-18T13:00:55.274Z,4.67
2017-11-18T13:03:22.701Z,5.23
2017-11-18T13:05:50.889Z,5.97
2017-11-18T13:08:18.346Z,4.60
2017-11-18T13:10:46.546Z,4.40
2017-11-18T13:13:14.004Z,4.60
2017-11-18T13:15:41.459Z,5.07
2017-11-18T13:18:08.886Z,4.27
2017-11-18T13:20:37.074Z,3.57
2017-11-18T13:23:04.507Z,3.80
2017-11-18T13:25:33.752Z,4.30
2017-11-18T13:28:01.191Z,3.97
2017-11-18T13:30:28.617Z,4.53
2017-11-18T13:32:56.054Z,3.97
2017-11-18T13:35:23.502Z,4.30
2017-11-18T13:37:51.926Z,3.60
2017-11-18T13:40:20.124Z,3.70
2017-11-18T13:42:47.554Z,4.13
2017-11-18T13:45:15.760Z,3.87
2017-11-18T13:47:43.201Z,3.93
2017-11-18T13:50:10.625Z,3.97
2017-11-18T13:52:38.068Z,4.17
2017-11-18T13:55:05.502Z,4.40
2017-11-18T13:57:32.930Z,4.70
2017-11-18T14:00:00.362Z,3.70
2017-11-18T14:02:27.840Z,4.50
2017-11-18T14:04:55.233Z,3.63
2017-11-18T14:07:22.664Z,4.80
2017-11-18T14:09:50.100Z,4.43
2017-11-18T14:12:18.310Z,4.40
2017-11-18T14:14:45.826Z,4.70
2017-11-18T14:17:13.271Z,3.30
2017-11-18T14:19:40.706Z,3.70
2017-11-18T14:22:08.200Z,4.40
2017-11-18T14:24:35.631Z,4.23
2017-11-18T14:27:03.108Z,4.67
2017-11-18T14:29:30.542Z,5.70
2017-11-18T14:31:57.968Z,4.80
2017-11-18T14:34:25.405Z,3.37
2017-11-18T14:36:52.828Z,3.93
2017-11-18T14:39:20.264Z,5.73
2017-11-18T14:41:47.704Z,3.97
2017-11-18T14:44:15.166Z,4.37
2017-11-18T14:46:42.611Z,4.50
2017-11-18T14:49:10.070Z,4.80
2017-11-18T14:51:37.495Z,4.47
2017-11-18T14:54:06.504Z,4.40
2017-11-18T14:56:33.933Z,4.53
2017-11-18T14:59:02.144Z,3.90
2017-11-18T15:01:29.587Z,4.33
2017-11-18T15:03:57.783Z,4.53
2017-11-18T15:06:25.203Z,3.90
2017-11-18T15:08:53.421Z,4.33
2017-11-18T15:11:20.847Z,3.30
2017-11-18T15:13:48.345Z,3.43
2017-11-18T15:16:17.783Z,4.50
2017-11-18T15:19:00.927Z,3.50
2017-11-18T15:21:35.730Z,3.17
2017-11-18T15:24:18.852Z,4.30
2017-11-18T15:26:51.792Z,3.80
2017-11-18T15:29:24.948Z,3.77
2017-11-18T15:32:14.026Z,4.60
2017-11-18T15:34:47.822Z,4.83
2017-11-18T15:40:19.826Z,3.83
2017-11-18T15:42:48.596Z,3.83
2017-11-18T15:45:21.246Z,4.03
2017-11-18T15:47:59.382Z,4.07
2017-11-18T15:50:29.346Z,3.90
2017-11-18T15:53:03.324Z,3.77
2017-11-18T15:55:36.505Z,4.30
2017-11-18T15:58:06.555Z,4.00
2017-11-18T16:03:39.340Z,3.60
2017-11-18T16:06:06.807Z,5.70
2017-11-18T16:08:34.237Z,3.90
2017-11-18T16:11:02.435Z,4.03
2017-11-18T16:13:29.879Z,3.60
2017-11-18T16:16:12.935Z,4.50
2017-11-18T16:18:40.367Z,4.07
2017-11-18T16:21:07.800Z,3.70
2017-11-18T16:23:35.208Z,4.10
2017-11-18T16:26:02.666Z,5.33
2017-11-18T16:28:30.097Z,4.83
2017-11-18T16:30:57.578Z,5.00
2017-11-18T16:33:24.987Z,4.30
2017-11-18T16:35:53.183Z,4.60
2017-11-18T16:38:21.375Z,3.70
2017-11-18T16:40:48.799Z,4.20
2017-11-18T16:43:17.027Z,4.30
2017-11-18T16:45:44.462Z,4.70
2017-11-18T16:48:11.902Z,4.47
2017-11-18T16:50:39.321Z,4.30
2017-11-18T16:53:06.755Z,3.50
2017-11-18T16:55:34.190Z,4.23
2017-11-18T16:58:01.619Z,3.17
2017-11-18T17:00:29.816Z,3.43
2017-11-18T17:02:57.267Z,4.30
2017-11-18T17:05:24.701Z,3.30
2017-11-18T17:07:52.898Z,3.27
2017-11-18T17:10:20.318Z,3.00
2017-11-18T17:12:47.763Z,3.30
2017-11-18T17:15:15.197Z,3.30
2017-11-18T17:17:42.622Z,3.73
2017-11-18T17:20:10.043Z,3.43
2017-11-18T17:22:37.476Z,4.63
2017-11-18T17:25:04.906Z,2.63
2017-11-18T17:27:32.371Z,2.70
2017-11-18T17:29:59.799Z,2.90
2017-11-18T17:32:27.997Z,3.10
2017-11-18T17:34:55.423Z,2.77
2017-11-18T17:37:23.640Z,3.77
2017-11-18T17:39:51.063Z,3.77
2017-11-18T17:42:18.503Z,3.10
2017-11-18T17:44:45.938Z,3.10
2017-11-18T17:47:13.353Z,2.60
2017-11-18T17:49:40.796Z,3.03
2017-11-18T17:52:08.220Z,3.67
2017-11-18T17:54:35.646Z,3.10
2017-11-18T17:57:03.085Z,3.60
2017-11-18T17:59:30.527Z,5.20
2017-11-18T18:01:57.945Z,9.13
2017-11-18T18:04:25.374Z,4.87
2017-11-18T18:06:52.810Z,4.90
2017-11-18T18:09:20.229Z,3.97
2017-11-18T18:11:48.427Z,3.50
2017-11-18T18:14:15.854Z,4.97
2017-11-18T18:16:44.047Z,5.43
2017-11-18T18:19:11.474Z,5.30
2017-11-18T18:21:38.908Z,5.63
2017-11-18T18:24:06.352Z,21.70
2017-11-18T18:26:33.774Z,8.30
2017-11-18T18:29:01.976Z,6.30
2017-11-18T18:31:29.406Z,5.50
2017-11-18T18:33:57.604Z,5.30
2017-11-18T18:36:25.032Z,3.90
2017-11-18T18:38:53.225Z,4.97
2017-11-18T18:41:20.695Z,9.47
2017-11-18T18:43:48.127Z,25.60
2017-11-18T18:46:15.565Z,17.87
2017-11-18T18:48:44.927Z,15.83
2017-11-18T18:51:12.365Z,6.60
2017-11-18T18:53:39.793Z,6.83
2017-11-18T18:56:08.009Z,5.33
2017-11-18T18:58:35.454Z,6.17
2017-11-18T19:01:02.882Z,7.67
2017-11-18T19:03:31.073Z,7.00
2017-11-18T19:05:58.547Z,58.60
2017-11-18T19:08:25.995Z,9.07
2017-11-18T19:10:53.439Z,10.57
2017-11-18T19:13:20.867Z,7.80
2017-11-18T19:15:49.264Z,4.90
2017-11-18T19:18:17.545Z,7.03
2017-11-18T19:20:45.747Z,5.13
2017-11-18T19:23:13.182Z,6.40
2017-11-18T19:25:40.615Z,5.20
2017-11-18T19:28:08.849Z,6.20
2017-11-18T19:30:36.299Z,6.17
2017-11-18T19:33:03.791Z,6.43
2017-11-18T19:35:31.207Z,5.20
2017-11-18T19:37:58.643Z,4.97
2017-11-18T19:40:26.072Z,5.47
2017-11-18T19:42:53.519Z,5.03
2017-11-18T19:45:20.959Z,5.67
2017-11-18T19:47:48.385Z,5.40
2017-11-18T19:50:15.816Z,5.73
2017-11-18T19:52:44.008Z,7.73
2017-11-18T19:55:11.438Z,6.90
2017-11-18T19:57:39.649Z,6.67
2017-11-18T20:00:07.096Z,6.60
2017-11-18T20:02:34.520Z,6.23
2017-11-18T20:05:01.953Z,5.37
2017-11-18T20:07:29.382Z,6.10
2017-11-18T20:09:56.810Z,5.60
2017-11-18T20:12:25.014Z,5.83
2017-11-18T20:14:52.435Z,6.43
2017-11-18T20:17:20.648Z,7.07
2017-11-18T20:19:48.070Z,6.57
2017-11-18T20:22:16.278Z,6.60
2017-11-18T20:24:43.732Z,6.23
2017-11-18T20:27:11.183Z,6.63
2017-11-18T20:29:38.609Z,7.20
2017-11-18T20:32:06.819Z,6.93
2017-11-18T20:34:34.230Z,7.30
2017-11-18T20:37:01.683Z,6.33
2017-11-18T20:39:29.163Z,7.50
2017-11-18T20:41:57.388Z,6.37
2017-11-18T20:44:24.810Z,8.30
2017-11-18T20:46:52.235Z,7.93
2017-11-18T20:49:19.690Z,7.60
2017-11-18T20:51:47.110Z,9.07
2017-11-18T20:54:14.532Z,9.27
2017-11-18T20:56:41.965Z,6.87
2017-11-18T20:59:10.172Z,8.87
2017-11-18T21:01:37.602Z,7.37
2017-11-18T21:04:05.811Z,7.70
2017-11-18T21:06:33.234Z,7.30
2017-11-18T21:09:01.457Z,9.13
2017-11-18T21:11:28.885Z,7.73
2017-11-18T21:13:56.315Z,8.77
2017-11-18T21:16:23.742Z,7.13
2017-11-18T21:18:51.177Z,8.97
2017-11-18T21:21:18.621Z,8.60
2017-11-18T21:23:46.043Z,9.00
2017-11-18T21:26:13.467Z,8.10
2017-11-18T21:28:40.898Z,6.90
2017-11-18T21:31:08.340Z,8.10
2017-11-18T21:33:35.765Z,8.80
2017-11-18T21:36:03.214Z,8.23
2017-11-18T21:38:30.648Z,9.13
2017-11-18T21:40:58.087Z,9.73
2017-11-18T21:43:25.508Z,9.30
2017-11-18T21:45:53.712Z,9.17
2017-11-18T21:48:21.137Z,8.90
2017-11-18T21:50:49.338Z,9.23
2017-11-18T21:53:22.669Z,9.83
2017-11-18T21:55:51.598Z,9.97
2017-11-18T21:58:19.807Z,10.50
2017-11-18T22:00:47.236Z,9.87
2017-11-18T22:03:15.438Z,9.90
2017-11-18T22:05:42.881Z,9.17
2017-11-18T22:08:10.323Z,9.20
2017-11-18T22:10:38.519Z,10.43
2017-11-18T22:13:05.966Z,11.73
2017-11-18T22:15:33.394Z,10.37
2017-11-18T22:18:00.829Z,10.37
2017-11-18T22:20:28.294Z,10.37
2017-11-18T22:22:55.741Z,10.10
2017-11-18T22:25:23.174Z,9.50
2017-11-18T22:27:50.613Z,10.70
2017-11-18T22:30:18.050Z,10.40
2017-11-18T22:32:46.248Z,12.10
2017-11-18T22:35:13.685Z,10.80
2017-11-18T22:37:41.884Z,13.07
2017-11-18T22:40:09.325Z,11.10
2017-11-18T22:42:36.762Z,12.70
2017-11-18T22:45:04.201Z,13.50
2017-11-18T22:47:31.644Z,14.60
2017-11-18T22:49:59.093Z,13.40
2017-11-18T22:52:26.523Z,10.53
2017-11-18T22:54:53.975Z,13.67
2017-11-18T22:57:22.434Z,13.93
2017-11-18T22:59:50.655Z,14.33
2017-11-18T23:02:18.089Z,11.63
2017-11-18T23:04:45.543Z,12.87
2017-11-18T23:07:13.739Z,12.30
2017-11-18T23:09:41.184Z,13.70
2017-11-18T23:12:08.618Z,12.77
2017-11-18T23:14:36.831Z,13.23
2017-11-18T23:17:04.270Z,12.37
2017-11-18T23:19:31.744Z,11.73
2017-11-18T23:21:59.187Z,10.07
2017-11-18T23:24:26.620Z,10.27
2017-11-18T23:26:54.838Z,10.70
2017-11-18T23:29:22.275Z,10.57
2017-11-18T23:31:49.850Z,10.73
2017-11-18T23:34:17.272Z,11.37
2017-11-18T23:36:45.473Z,11.60
2017-11-18T23:39:12.914Z,11.60
2017-11-18T23:41:40.338Z,11.03
2017-11-18T23:44:07.781Z,9.70
2017-11-18T23:46:35.208Z,10.43
2017-11-18T23:49:02.649Z,10.90
2017-11-18T23:51:30.089Z,11.83
2017-11-18T23:53:58.298Z,11.77
2017-11-18T23:56:25.735Z,9.33
2017-11-18T23:58:53.185Z,11.00
